sensor_id;sensor_type;location;lat;lon;timestamp;P1;durP1;ratioP1;P2;durP2;ratioP2
56653;SDS011;45096;52.302;4.634;2023-05-10T00:01:41;10.32;;;9.20;;
56653;SDS011;45096;52.302;4.634;2023-05-10T00:04:06;8.73;;;7.93;;
56653;SDS011;45096;52.302;4.634;2023-05-10T00:06:34;12.13;;;9.60;;
56653;SDS011;45096;52.302;4.634;2023-05-10T00:08:59;9.02;;;7.97;;
56653;SDS011;45096;52.302;4.634;2023-05-10T00:11:25;13.18;;;11.43;;
56653;SDS011;45096;52.302;4.634;2023-05-10T00:13:50;12.70;;;11.55;;
56653;SDS011;45096;52.302;4.634;2023-05-10T00:16:16;11.35;;;10.15;;
56653;SDS011;45096;52.302;4.634;2023-05-10T00:18:41;10.82;;;9.73;;
56653;SDS011;45096;52.302;4.634;2023-05-10T00:21:06;13.45;;;12.05;;
56653;SDS011;45096;52.302;4.634;2023-05-10T00:23:33;18.65;;;11.80;;
56653;SDS011;45096;52.302;4.634;2023-05-10T00:25:59;9.70;;;8.43;;
56653;SDS011;45096;52.302;4.634;2023-05-10T00:28:24;11.93;;;10.63;;
56653;SDS011;45096;52.302;4.634;2023-05-10T00:30:49;9.98;;;8.98;;
56653;SDS011;45096;52.302;4.634;2023-05-10T00:33:15;13.73;;;12.07;;
56653;SDS011;45096;52.302;4.634;2023-05-10T00:35:40;12.77;;;11.50;;
56653;SDS011;45096;52.302;4.634;2023-05-10T00:38:06;12.05;;;10.32;;
56653;SDS011;45096;52.302;4.634;2023-05-10T00:40:32;13.63;;;11.27;;
56653;SDS011;45096;52.302;4.634;2023-05-10T00:43:00;12.75;;;11.45;;
56653;SDS011;45096;52.302;4.634;2023-05-10T00:45:25;11.90;;;9.80;;
56653;SDS011;45096;52.302;4.634;2023-05-10T00:47:51;11.63;;;10.40;;
56653;SDS011;45096;52.302;4.634;2023-05-10T00:50:17;11.68;;;10.57;;
56653;SDS011;45096;52.302;4.634;2023-05-10T00:52:42;11.23;;;10.13;;
56653;SDS011;45096;52.302;4.634;2023-05-10T00:55:08;11.27;;;10.10;;
56653;SDS011;45096;52.302;4.634;2023-05-10T00:57:36;10.63;;;9.63;;
56653;SDS011;45096;52.302;4.634;2023-05-10T01:00:02;9.35;;;8.52;;
56653;SDS011;45096;52.302;4.634;2023-05-10T01:02:28;10.55;;;9.50;;
56653;SDS011;45096;52.302;4.634;2023-05-10T01:04:53;11.57;;;10.50;;
56653;SDS011;45096;52.302;4.634;2023-05-10T01:07:19;11.13;;;10.07;;
56653;SDS011;45096;52.302;4.634;2023-05-10T01:09:44;10.55;;;9.55;;
56653;SDS011;45096;52.302;4.634;2023-05-10T01:12:10;11.68;;;9.65;;
56653;SDS011;45096;52.302;4.634;2023-05-10T01:14:37;12.60;;;10.65;;
56653;SDS011;45096;52.302;4.634;2023-05-10T01:17:02;10.55;;;9.50;;
56653;SDS011;45096;52.302;4.634;2023-05-10T01:19:29;10.23;;;9.10;;
56653;SDS011;45096;52.302;4.634;2023-05-10T01:21:57;11.50;;;10.43;;
56653;SDS011;45096;52.302;4.634;2023-05-10T01:27:34;13.85;;;12.43;;
56653;SDS011;45096;52.302;4.634;2023-05-10T01:32:59;11.85;;;10.48;;
56653;SDS011;45096;52.302;4.634;2023-05-10T01:35:26;16.75;;;13.25;;
56653;SDS011;45096;52.302;4.634;2023-05-10T01:37:58;10.27;;;9.27;;
56653;SDS011;45096;52.302;4.634;2023-05-10T01:40:26;12.02;;;10.93;;
56653;SDS011;45096;52.302;4.634;2023-05-10T01:42:57;11.70;;;10.48;;
56653;SDS011;45096;52.302;4.634;2023-05-10T01:45:27;16.25;;;12.23;;
56653;SDS011;45096;52.302;4.634;2023-05-10T01:47:58;15.18;;;11.48;;
56653;SDS011;45096;52.302;4.634;2023-05-10T01:50:29;13.05;;;10.90;;
56653;SDS011;45096;52.302;4.634;2023-05-10T01:52:56;13.75;;;11.75;;
56653;SDS011;45096;52.302;4.634;2023-05-10T01:55:24;12.95;;;11.65;;
56653;SDS011;45096;52.302;4.634;2023-05-10T01:57:52;11.77;;;10.60;;
56653;SDS011;45096;52.302;4.634;2023-05-10T02:00:24;13.95;;;12.48;;
56653;SDS011;45096;52.302;4.634;2023-05-10T02:02:49;15.65;;;13.90;;
56653;SDS011;45096;52.302;4.634;2023-05-10T02:05:17;12.73;;;11.20;;
56653;SDS011;45096;52.302;4.634;2023-05-10T02:07:43;12.48;;;11.07;;
56653;SDS011;45096;52.302;4.634;2023-05-10T02:10:09;16.40;;;12.57;;
56653;SDS011;45096;52.302;4.634;2023-05-10T02:12:36;17.67;;;14.10;;
56653;SDS011;45096;52.302;4.634;2023-05-10T02:15:04;16.58;;;14.48;;
56653;SDS011;45096;52.302;4.634;2023-05-10T02:17:31;18.77;;;14.55;;
56653;SDS011;45096;52.302;4.634;2023-05-10T02:19:57;18.05;;;14.55;;
56653;SDS011;45096;52.302;4.634;2023-05-10T02:22:25;14.98;;;12.32;;
56653;SDS011;45096;52.302;4.634;2023-05-10T02:24:51;15.98;;;14.15;;
56653;SDS011;45096;52.302;4.634;2023-05-10T02:27:17;14.73;;;11.57;;
56653;SDS011;45096;52.302;4.634;2023-05-10T02:29:43;14.15;;;12.65;;
56653;SDS011;45096;52.302;4.634;2023-05-10T02:32:09;18.13;;;16.00;;
56653;SDS011;45096;52.302;4.634;2023-05-10T02:34:35;14.57;;;12.98;;
56653;SDS011;45096;52.302;4.634;2023-05-10T02:37:01;17.83;;;14.05;;
56653;SDS011;45096;52.302;4.634;2023-05-10T02:39:28;21.38;;;15.65;;
56653;SDS011;45096;52.302;4.634;2023-05-10T02:41:54;15.38;;;12.15;;
56653;SDS011;45096;52.302;4.634;2023-05-10T02:44:21;14.95;;;11.45;;
56653;SDS011;45096;52.302;4.634;2023-05-10T02:46:47;13.32;;;11.18;;
56653;SDS011;45096;52.302;4.634;2023-05-10T02:49:13;15.80;;;13.90;;
56653;SDS011;45096;52.302;4.634;2023-05-10T02:51:40;13.77;;;12.27;;
56653;SDS011;45096;52.302;4.634;2023-05-10T02:54:09;19.42;;;15.02;;
56653;SDS011;45096;52.302;4.634;2023-05-10T02:56:42;20.38;;;13.50;;
56653;SDS011;45096;52.302;4.634;2023-05-10T02:59:09;18.52;;;12.30;;
56653;SDS011;45096;52.302;4.634;2023-05-10T03:01:35;19.42;;;14.80;;
56653;SDS011;45096;52.302;4.634;2023-05-10T03:04:00;14.93;;;12.57;;
56653;SDS011;45096;52.302;4.634;2023-05-10T03:06:25;13.18;;;11.07;;
56653;SDS011;45096;52.302;4.634;2023-05-10T03:08:51;13.07;;;10.40;;
56653;SDS011;45096;52.302;4.634;2023-05-10T03:11:21;17.70;;;11.00;;
56653;SDS011;45096;52.302;4.634;2023-05-10T03:13:56;12.80;;;9.40;;
56653;SDS011;45096;52.302;4.634;2023-05-10T03:16:31;12.88;;;9.15;;
56653;SDS011;45096;52.302;4.634;2023-05-10T03:19:01;14.68;;;9.23;;
56653;SDS011;45096;52.302;4.634;2023-05-10T03:21:30;13.82;;;9.63;;
56653;SDS011;45096;52.302;4.634;2023-05-10T03:23:57;9.52;;;8.52;;
56653;SDS011;45096;52.302;4.634;2023-05-10T03:26:24;10.55;;;8.05;;
56653;SDS011;45096;52.302;4.634;2023-05-10T03:28:51;9.90;;;7.88;;
56653;SDS011;45096;52.302;4.634;2023-05-10T03:31:19;8.85;;;7.75;;
56653;SDS011;45096;52.302;4.634;2023-05-10T03:33:48;9.40;;;7.95;;
56653;SDS011;45096;52.302;4.634;2023-05-10T03:36:13;11.23;;;8.25;;
56653;SDS011;45096;52.302;4.634;2023-05-10T03:38:39;10.65;;;7.88;;
56653;SDS011;45096;52.302;4.634;2023-05-10T03:41:04;11.52;;;8.60;;
56653;SDS011;45096;52.302;4.634;2023-05-10T03:43:30;10.07;;;8.52;;
56653;SDS011;45096;52.302;4.634;2023-05-10T03:45:55;12.15;;;7.43;;
56653;SDS011;45096;52.302;4.634;2023-05-10T03:48:22;15.18;;;8.68;;
56653;SDS011;45096;52.302;4.634;2023-05-10T03:50:47;10.88;;;8.73;;
56653;SDS011;45096;52.302;4.634;2023-05-10T03:53:13;9.77;;;8.38;;
56653;SDS011;45096;52.302;4.634;2023-05-10T03:55:38;10.03;;;8.57;;
56653;SDS011;45096;52.302;4.634;2023-05-10T03:58:04;9.30;;;8.27;;
56653;SDS011;45096;52.302;4.634;2023-05-10T04:00:29;10.38;;;7.82;;
56653;SDS011;45096;52.302;4.634;2023-05-10T04:02:54;9.27;;;7.63;;
56653;SDS011;45096;52.302;4.634;2023-05-10T04:05:21;11.13;;;7.57;;
56653;SDS011;45096;52.302;4.634;2023-05-10T04:07:47;9.50;;;7.05;;
56653;SDS011;45096;52.302;4.634;2023-05-10T04:10:12;13.25;;;8.65;;
56653;SDS011;45096;52.302;4.634;2023-05-10T04:12:37;8.68;;;7.78;;
56653;SDS011;45096;52.302;4.634;2023-05-10T04:15:03;15.50;;;10.75;;
56653;SDS011;45096;52.302;4.634;2023-05-10T04:17:29;11.48;;;8.40;;
56653;SDS011;45096;52.302;4.634;2023-05-10T04:19:55;11.70;;;9.18;;
56653;SDS011;45096;52.302;4.634;2023-05-10T04:22:22;11.13;;;7.90;;
56653;SDS011;45096;52.302;4.634;2023-05-10T04:24:47;12.10;;;8.45;;
56653;SDS011;45096;52.302;4.634;2023-05-10T04:27:13;8.45;;;7.47;;
56653;SDS011;45096;52.302;4.634;2023-05-10T04:29:38;13.60;;;8.65;;
56653;SDS011;45096;52.302;4.634;2023-05-10T04:32:04;8.57;;;6.97;;
56653;SDS011;45096;52.302;4.634;2023-05-10T04:34:29;9.55;;;7.55;;
56653;SDS011;45096;52.302;4.634;2023-05-10T04:36:55;10.95;;;8.63;;
56653;SDS011;45096;52.302;4.634;2023-05-10T04:39:21;12.60;;;9.88;;
56653;SDS011;45096;52.302;4.634;2023-05-10T04:41:47;11.55;;;9.18;;
56653;SDS011;45096;52.302;4.634;2023-05-10T04:44:12;10.05;;;8.85;;
56653;SDS011;45096;52.302;4.634;2023-05-10T04:46:38;10.93;;;9.07;;
56653;SDS011;45096;52.302;4.634;2023-05-10T04:49:03;12.45;;;9.00;;
56653;SDS011;45096;52.302;4.634;2023-05-10T04:51:30;11.20;;;8.43;;
56653;SDS011;45096;52.302;4.634;2023-05-10T04:53:55;8.70;;;7.80;;
56653;SDS011;45096;52.302;4.634;2023-05-10T04:56:22;8.25;;;7.00;;
56653;SDS011;45096;52.302;4.634;2023-05-10T04:58:47;10.38;;;7.88;;
56653;SDS011;45096;52.302;4.634;2023-05-10T05:01:13;9.68;;;7.82;;
56653;SDS011;45096;52.302;4.634;2023-05-10T05:03:38;9.38;;;7.65;;
56653;SDS011;45096;52.302;4.634;2023-05-10T05:06:04;9.00;;;7.38;;
56653;SDS011;45096;52.302;4.634;2023-05-10T05:08:30;8.57;;;7.65;;
56653;SDS011;45096;52.302;4.634;2023-05-10T05:10:55;8.00;;;6.68;;
56653;SDS011;45096;52.302;4.634;2023-05-10T05:13:22;9.38;;;7.97;;
56653;SDS011;45096;52.302;4.634;2023-05-10T05:15:47;8.20;;;7.20;;
56653;SDS011;45096;52.302;4.634;2023-05-10T05:18:13;8.95;;;7.07;;
56653;SDS011;45096;52.302;4.634;2023-05-10T05:20:38;6.80;;;5.95;;
56653;SDS011;45096;52.302;4.634;2023-05-10T05:23:05;9.05;;;7.57;;
56653;SDS011;45096;52.302;4.634;2023-05-10T05:25:31;9.88;;;7.07;;
56653;SDS011;45096;52.302;4.634;2023-05-10T05:27:56;8.65;;;7.75;;
56653;SDS011;45096;52.302;4.634;2023-05-10T05:30:23;8.43;;;7.05;;
56653;SDS011;45096;52.302;4.634;2023-05-10T05:32:48;10.45;;;8.13;;
56653;SDS011;45096;52.302;4.634;2023-05-10T05:35:14;8.60;;;7.10;;
56653;SDS011;45096;52.302;4.634;2023-05-10T05:37:39;8.30;;;6.70;;
56653;SDS011;45096;52.302;4.634;2023-05-10T05:40:05;11.65;;;8.48;;
56653;SDS011;45096;52.302;4.634;2023-05-10T05:42:31;11.30;;;8.48;;
56653;SDS011;45096;52.302;4.634;2023-05-10T05:44:57;9.43;;;8.13;;
56653;SDS011;45096;52.302;4.634;2023-05-10T05:47:24;8.95;;;6.63;;
56653;SDS011;45096;52.302;4.634;2023-05-10T05:49:49;9.13;;;7.78;;
56653;SDS011;45096;52.302;4.634;2023-05-10T05:52:15;9.65;;;7.05;;
56653;SDS011;45096;52.302;4.634;2023-05-10T05:54:40;7.57;;;6.63;;
56653;SDS011;45096;52.302;4.634;2023-05-10T05:57:05;9.20;;;7.22;;
56653;SDS011;45096;52.302;4.634;2023-05-10T05:59:31;14.52;;;8.82;;
56653;SDS011;45096;52.302;4.634;2023-05-10T06:01:56;11.50;;;9.38;;
56653;SDS011;45096;52.302;4.634;2023-05-10T06:04:23;9.10;;;8.15;;
56653;SDS011;45096;52.302;4.634;2023-05-10T06:06:48;10.82;;;8.77;;
56653;SDS011;45096;52.302;4.634;2023-05-10T06:09:14;8.80;;;7.30;;
56653;SDS011;45096;52.302;4.634;2023-05-10T06:11:39;9.98;;;8.13;;
56653;SDS011;45096;52.302;4.634;2023-05-10T06:14:05;7.20;;;6.50;;
56653;SDS011;45096;52.302;4.634;2023-05-10T06:16:30;10.15;;;7.65;;
56653;SDS011;45096;52.302;4.634;2023-05-10T06:18:56;8.70;;;7.15;;
56653;SDS011;45096;52.302;4.634;2023-05-10T06:21:23;11.18;;;7.55;;
56653;SDS011;45096;52.302;4.634;2023-05-10T06:23:48;9.00;;;7.32;;
56653;SDS011;45096;52.302;4.634;2023-05-10T06:26:13;11.32;;;6.97;;
56653;SDS011;45096;52.302;4.634;2023-05-10T06:28:39;8.13;;;6.90;;
56653;SDS011;45096;52.302;4.634;2023-05-10T06:31:04;8.63;;;7.07;;
56653;SDS011;45096;52.302;4.634;2023-05-10T06:33:30;12.25;;;8.93;;
56653;SDS011;45096;52.302;4.634;2023-05-10T06:35:55;9.45;;;8.02;;
56653;SDS011;45096;52.302;4.634;2023-05-10T06:38:22;8.60;;;7.70;;
56653;SDS011;45096;52.302;4.634;2023-05-10T06:40:48;8.38;;;6.95;;
56653;SDS011;45096;52.302;4.634;2023-05-10T06:43:13;10.15;;;7.55;;
56653;SDS011;45096;52.302;4.634;2023-05-10T06:45:38;7.55;;;6.45;;
56653;SDS011;45096;52.302;4.634;2023-05-10T06:48:04;7.43;;;5.65;;
56653;SDS011;45096;52.302;4.634;2023-05-10T06:50:30;6.78;;;5.60;;
56653;SDS011;45096;52.302;4.634;2023-05-10T06:52:55;6.90;;;6.10;;
56653;SDS011;45096;52.302;4.634;2023-05-10T06:55:22;6.25;;;5.65;;
56653;SDS011;45096;52.302;4.634;2023-05-10T06:57:47;6.85;;;5.22;;
56653;SDS011;45096;52.302;4.634;2023-05-10T07:00:13;7.28;;;5.25;;
56653;SDS011;45096;52.302;4.634;2023-05-10T07:02:39;5.63;;;5.20;;
56653;SDS011;45096;52.302;4.634;2023-05-10T07:05:05;5.53;;;5.03;;
56653;SDS011;45096;52.302;4.634;2023-05-10T07:07:30;5.20;;;4.80;;
56653;SDS011;45096;52.302;4.634;2023-05-10T07:09:56;5.72;;;5.15;;
56653;SDS011;45096;52.302;4.634;2023-05-10T07:12:23;5.70;;;5.10;;
56653;SDS011;45096;52.302;4.634;2023-05-10T07:14:48;5.03;;;4.53;;
56653;SDS011;45096;52.302;4.634;2023-05-10T07:17:13;5.20;;;4.75;;
56653;SDS011;45096;52.302;4.634;2023-05-10T07:19:39;4.57;;;4.05;;
56653;SDS011;45096;52.302;4.634;2023-05-10T07:22:04;4.43;;;4.13;;
56653;SDS011;45096;52.302;4.634;2023-05-10T07:24:30;5.55;;;4.80;;
56653;SDS011;45096;52.302;4.634;2023-05-10T07:26:56;5.30;;;4.68;;
56653;SDS011;45096;52.302;4.634;2023-05-10T07:29:23;4.60;;;4.28;;
56653;SDS011;45096;52.302;4.634;2023-05-10T07:31:49;5.18;;;4.70;;
56653;SDS011;45096;52.302;4.634;2023-05-10T07:34:14;5.38;;;4.88;;
56653;SDS011;45096;52.302;4.634;2023-05-10T07:36:39;4.93;;;4.55;;
56653;SDS011;45096;52.302;4.634;2023-05-10T07:39:05;4.93;;;4.25;;
56653;SDS011;45096;52.302;4.634;2023-05-10T07:41:30;4.97;;;4.57;;
56653;SDS011;45096;52.302;4.634;2023-05-10T07:43:56;6.15;;;4.57;;
56653;SDS011;45096;52.302;4.634;2023-05-10T07:46:23;4.72;;;4.10;;
56653;SDS011;45096;52.302;4.634;2023-05-10T07:48:48;4.65;;;4.25;;
56653;SDS011;45096;52.302;4.634;2023-05-10T07:51:13;5.45;;;4.95;;
56653;SDS011;45096;52.302;4.634;2023-05-10T07:53:39;5.20;;;4.70;;
56653;SDS011;45096;52.302;4.634;2023-05-10T07:56:19;5.72;;;5.22;;
56653;SDS011;45096;52.302;4.634;2023-05-10T07:58:46;5.25;;;4.80;;
56653;SDS011;45096;52.302;4.634;2023-05-10T08:01:11;6.25;;;5.38;;
56653;SDS011;45096;52.302;4.634;2023-05-10T08:03:38;6.30;;;5.25;;
56653;SDS011;45096;52.302;4.634;2023-05-10T08:06:04;6.93;;;5.88;;
56653;SDS011;45096;52.302;4.634;2023-05-10T08:08:30;8.90;;;6.97;;
56653;SDS011;45096;52.302;4.634;2023-05-10T08:10:55;7.13;;;6.43;;
56653;SDS011;45096;52.302;4.634;2023-05-10T08:13:20;8.23;;;5.70;;
56653;SDS011;45096;52.302;4.634;2023-05-10T08:15:46;6.28;;;5.18;;
56653;SDS011;45096;52.302;4.634;2023-05-10T08:18:11;5.88;;;5.32;;
56653;SDS011;45096;52.302;4.634;2023-05-10T08:20:38;5.43;;;4.97;;
56653;SDS011;45096;52.302;4.634;2023-05-10T08:23:04;6.57;;;5.13;;
56653;SDS011;45096;52.302;4.634;2023-05-10T08:25:29;7.53;;;4.80;;
56653;SDS011;45096;52.302;4.634;2023-05-10T08:27:54;4.35;;;3.95;;
56653;SDS011;45096;52.302;4.634;2023-05-10T08:30:20;4.80;;;4.25;;
56653;SDS011;45096;52.302;4.634;2023-05-10T08:32:46;5.97;;;5.13;;
56653;SDS011;45096;52.302;4.634;2023-05-10T08:35:11;4.50;;;4.10;;
56653;SDS011;45096;52.302;4.634;2023-05-10T08:37:38;4.75;;;4.15;;
56653;SDS011;45096;52.302;4.634;2023-05-10T08:40:04;5.38;;;4.70;;
56653;SDS011;45096;52.302;4.634;2023-05-10T08:42:30;5.60;;;4.70;;
56653;SDS011;45096;52.302;4.634;2023-05-10T08:44:59;5.13;;;4.30;;
56653;SDS011;45096;52.302;4.634;2023-05-10T08:47:25;5.63;;;5.00;;
56653;SDS011;45096;52.302;4.634;2023-05-10T08:49:52;6.97;;;4.70;;
56653;SDS011;45096;52.302;4.634;2023-05-10T08:52:18;6.20;;;4.70;;
56653;SDS011;45096;52.302;4.634;2023-05-10T08:54:45;6.45;;;4.80;;
56653;SDS011;45096;52.302;4.634;2023-05-10T08:57:10;5.90;;;4.03;;
56653;SDS011;45096;52.302;4.634;2023-05-10T08:59:36;5.35;;;4.85;;
56653;SDS011;45096;52.302;4.634;2023-05-10T09:02:01;6.65;;;4.80;;
56653;SDS011;45096;52.302;4.634;2023-05-10T09:04:27;4.53;;;4.00;;
56653;SDS011;45096;52.302;4.634;2023-05-10T09:06:53;7.38;;;5.00;;
56653;SDS011;45096;52.302;4.634;2023-05-10T09:09:19;4.93;;;4.25;;
56653;SDS011;45096;52.302;4.634;2023-05-10T09:11:47;6.47;;;4.90;;
56653;SDS011;45096;52.302;4.634;2023-05-10T09:14:12;5.20;;;4.68;;
56653;SDS011;45096;52.302;4.634;2023-05-10T09:16:38;4.60;;;4.20;;
56653;SDS011;45096;52.302;4.634;2023-05-10T09:19:04;5.45;;;3.95;;
56653;SDS011;45096;52.302;4.634;2023-05-10T09:21:29;4.28;;;3.83;;
56653;SDS011;45096;52.302;4.634;2023-05-10T09:23:55;5.03;;;4.63;;
56653;SDS011;45096;52.302;4.634;2023-05-10T09:26:24;5.15;;;3.97;;
56653;SDS011;45096;52.302;4.634;2023-05-10T09:28:51;5.22;;;4.72;;
56653;SDS011;45096;52.302;4.634;2023-05-10T09:31:18;5.65;;;5.10;;
56653;SDS011;45096;52.302;4.634;2023-05-10T09:33:43;5.63;;;4.18;;
56653;SDS011;45096;52.302;4.634;2023-05-10T09:36:09;4.28;;;3.88;;
56653;SDS011;45096;52.302;4.634;2023-05-10T09:38:44;4.85;;;4.45;;
56653;SDS011;45096;52.302;4.634;2023-05-10T09:41:15;7.03;;;4.75;;
56653;SDS011;45096;52.302;4.634;2023-05-10T09:43:41;10.15;;;5.10;;
56653;SDS011;45096;52.302;4.634;2023-05-10T09:46:09;7.93;;;5.05;;
56653;SDS011;45096;52.302;4.634;2023-05-10T09:48:37;7.88;;;5.00;;
56653;SDS011;45096;52.302;4.634;2023-05-10T09:51:06;6.50;;;5.25;;
56653;SDS011;45096;52.302;4.634;2023-05-10T09:53:32;4.80;;;4.30;;
56653;SDS011;45096;52.302;4.634;2023-05-10T09:55:57;4.68;;;4.28;;
56653;SDS011;45096;52.302;4.634;2023-05-10T09:58:22;7.05;;;4.85;;
56653;SDS011;45096;52.302;4.634;2023-05-10T10:00:48;5.88;;;4.40;;
56653;SDS011;45096;52.302;4.634;2023-05-10T10:03:16;4.63;;;4.18;;
56653;SDS011;45096;52.302;4.634;2023-05-10T10:05:42;6.15;;;4.55;;
56653;SDS011;45096;52.302;4.634;2023-05-10T10:08:08;6.35;;;4.70;;
56653;SDS011;45096;52.302;4.634;2023-05-10T10:10:34;7.80;;;5.55;;
56653;SDS011;45096;52.302;4.634;2023-05-10T10:12:59;5.63;;;4.55;;
56653;SDS011;45096;52.302;4.634;2023-05-10T10:15:25;5.55;;;4.68;;
56653;SDS011;45096;52.302;4.634;2023-05-10T10:17:51;4.53;;;4.07;;
56653;SDS011;45096;52.302;4.634;2023-05-10T10:20:19;4.53;;;4.13;;
56653;SDS011;45096;52.302;4.634;2023-05-10T10:22:45;6.60;;;4.88;;
56653;SDS011;45096;52.302;4.634;2023-05-10T10:25:12;5.20;;;4.75;;
56653;SDS011;45096;52.302;4.634;2023-05-10T10:27:41;5.60;;;5.10;;
56653;SDS011;45096;52.302;4.634;2023-05-10T10:30:13;6.93;;;5.90;;
56653;SDS011;45096;52.302;4.634;2023-05-10T10:32:50;7.00;;;5.40;;
56653;SDS011;45096;52.302;4.634;2023-05-10T10:35:26;6.57;;;5.90;;
56653;SDS011;45096;52.302;4.634;2023-05-10T10:37:53;5.30;;;4.80;;
56653;SDS011;45096;52.302;4.634;2023-05-10T10:40:22;8.32;;;5.65;;
56653;SDS011;45096;52.302;4.634;2023-05-10T10:42:48;8.75;;;5.90;;
56653;SDS011;45096;52.302;4.634;2023-05-10T10:45:14;7.03;;;5.97;;
56653;SDS011;45096;52.302;4.634;2023-05-10T10:47:39;9.07;;;7.38;;
56653;SDS011;45096;52.302;4.634;2023-05-10T10:50:05;8.80;;;6.90;;
56653;SDS011;45096;52.302;4.634;2023-05-10T10:52:33;9.13;;;7.18;;
56653;SDS011;45096;52.302;4.634;2023-05-10T10:55:00;7.63;;;5.88;;
56653;SDS011;45096;52.302;4.634;2023-05-10T10:57:27;9.75;;;6.95;;
56653;SDS011;45096;52.302;4.634;2023-05-10T11:00:03;11.02;;;7.65;;
56653;SDS011;45096;52.302;4.634;2023-05-10T11:02:43;8.70;;;6.88;;
56653;SDS011;45096;52.302;4.634;2023-05-10T11:05:22;9.48;;;7.28;;
56653;SDS011;45096;52.302;4.634;2023-05-10T11:08:00;10.52;;;7.03;;
56653;SDS011;45096;52.302;4.634;2023-05-10T11:10:31;10.23;;;7.28;;
56653;SDS011;45096;52.302;4.634;2023-05-10T11:12:58;9.82;;;7.25;;
56653;SDS011;45096;52.302;4.634;2023-05-10T11:15:28;8.18;;;6.55;;
56653;SDS011;45096;52.302;4.634;2023-05-10T11:17:54;10.20;;;7.95;;
56653;SDS011;45096;52.302;4.634;2023-05-10T11:20:19;10.23;;;7.43;;
56653;SDS011;45096;52.302;4.634;2023-05-10T11:22:51;12.57;;;6.97;;
56653;SDS011;45096;52.302;4.634;2023-05-10T11:25:18;11.45;;;7.55;;
56653;SDS011;45096;52.302;4.634;2023-05-10T11:27:44;11.50;;;8.23;;
56653;SDS011;45096;52.302;4.634;2023-05-10T11:30:09;10.27;;;7.53;;
56653;SDS011;45096;52.302;4.634;2023-05-10T11:32:36;12.23;;;9.30;;
56653;SDS011;45096;52.302;4.634;2023-05-10T11:35:06;14.23;;;8.38;;
56653;SDS011;45096;52.302;4.634;2023-05-10T11:37:32;12.15;;;7.43;;
56653;SDS011;45096;52.302;4.634;2023-05-10T11:39:57;16.52;;;9.25;;
56653;SDS011;45096;52.302;4.634;2023-05-10T11:42:24;14.40;;;7.88;;
56653;SDS011;45096;52.302;4.634;2023-05-10T11:44:50;19.02;;;11.07;;
56653;SDS011;45096;52.302;4.634;2023-05-10T11:47:15;17.55;;;10.02;;
56653;SDS011;45096;52.302;4.634;2023-05-10T11:49:43;15.55;;;9.52;;
56653;SDS011;45096;52.302;4.634;2023-05-10T11:52:08;16.95;;;9.32;;
56653;SDS011;45096;52.302;4.634;2023-05-10T11:54:34;18.55;;;9.68;;
56653;SDS011;45096;52.302;4.634;2023-05-10T11:56:59;15.00;;;8.80;;
56653;SDS011;45096;52.302;4.634;2023-05-10T11:59:26;15.70;;;8.75;;
56653;SDS011;45096;52.302;4.634;2023-05-10T12:01:52;17.83;;;9.25;;
56653;SDS011;45096;52.302;4.634;2023-05-10T12:04:17;19.33;;;9.55;;
56653;SDS011;45096;52.302;4.634;2023-05-10T12:06:43;13.68;;;8.55;;
56653;SDS011;45096;52.302;4.634;2023-05-10T12:09:08;13.10;;;8.57;;
56653;SDS011;45096;52.302;4.634;2023-05-10T12:11:36;11.30;;;7.72;;
56653;SDS011;45096;52.302;4.634;2023-05-10T12:14:03;15.02;;;7.60;;
56653;SDS011;45096;52.302;4.634;2023-05-10T12:16:31;13.65;;;8.70;;
56653;SDS011;45096;52.302;4.634;2023-05-10T12:18:57;15.52;;;8.57;;
56653;SDS011;45096;52.302;4.634;2023-05-10T12:21:23;16.95;;;9.05;;
56653;SDS011;45096;52.302;4.634;2023-05-10T12:23:50;17.98;;;9.45;;
56653;SDS011;45096;52.302;4.634;2023-05-10T12:26:16;15.95;;;8.70;;
56653;SDS011;45096;52.302;4.634;2023-05-10T12:28:41;14.57;;;7.95;;
56653;SDS011;45096;52.302;4.634;2023-05-10T12:31:07;14.50;;;8.48;;
56653;SDS011;45096;52.302;4.634;2023-05-10T12:33:37;16.67;;;8.38;;
56653;SDS011;45096;52.302;4.634;2023-05-10T12:36:02;14.98;;;7.47;;
56653;SDS011;45096;52.302;4.634;2023-05-10T12:38:29;14.73;;;8.25;;
56653;SDS011;45096;52.302;4.634;2023-05-10T12:40:57;12.18;;;8.52;;
56653;SDS011;45096;52.302;4.634;2023-05-10T12:43:23;13.93;;;8.02;;
56653;SDS011;45096;52.302;4.634;2023-05-10T12:45:48;13.52;;;8.57;;
56653;SDS011;45096;52.302;4.634;2023-05-10T12:48:13;13.15;;;9.23;;
56653;SDS011;45096;52.302;4.634;2023-05-10T12:50:40;13.23;;;8.70;;
56653;SDS011;45096;52.302;4.634;2023-05-10T12:53:06;13.15;;;8.30;;
56653;SDS011;45096;52.302;4.634;2023-05-10T12:55:31;14.50;;;9.13;;
56653;SDS011;45096;52.302;4.634;2023-05-10T12:57:57;14.10;;;8.85;;
56653;SDS011;45096;52.302;4.634;2023-05-10T13:00:22;13.70;;;8.88;;
56653;SDS011;45096;52.302;4.634;2023-05-10T13:02:48;12.70;;;8.73;;
56653;SDS011;45096;52.302;4.634;2023-05-10T13:05:13;12.98;;;8.15;;
56653;SDS011;45096;52.302;4.634;2023-05-10T13:07:40;13.80;;;8.40;;
56653;SDS011;45096;52.302;4.634;2023-05-10T13:10:06;13.25;;;7.53;;
56653;SDS011;45096;52.302;4.634;2023-05-10T13:12:32;15.15;;;8.43;;
56653;SDS011;45096;52.302;4.634;2023-05-10T13:14:58;16.25;;;9.77;;
56653;SDS011;45096;52.302;4.634;2023-05-10T13:17:24;24.17;;;10.07;;
56653;SDS011;45096;52.302;4.634;2023-05-10T13:19:50;14.45;;;9.00;;
56653;SDS011;45096;52.302;4.634;2023-05-10T13:22:16;16.23;;;9.55;;
56653;SDS011;45096;52.302;4.634;2023-05-10T13:24:42;16.85;;;7.90;;
56653;SDS011;45096;52.302;4.634;2023-05-10T13:27:08;14.23;;;8.73;;
56653;SDS011;45096;52.302;4.634;2023-05-10T13:29:33;10.52;;;7.55;;
56653;SDS011;45096;52.302;4.634;2023-05-10T13:31:59;16.05;;;9.07;;
56653;SDS011;45096;52.302;4.634;2023-05-10T13:34:24;12.88;;;7.88;;
56653;SDS011;45096;52.302;4.634;2023-05-10T13:36:50;11.25;;;7.82;;
56653;SDS011;45096;52.302;4.634;2023-05-10T13:39:15;11.60;;;7.38;;
56653;SDS011;45096;52.302;4.634;2023-05-10T13:41:42;16.80;;;7.93;;
56653;SDS011;45096;52.302;4.634;2023-05-10T13:44:08;14.30;;;7.70;;
56653;SDS011;45096;52.302;4.634;2023-05-10T13:46:33;14.20;;;8.18;;
56653;SDS011;45096;52.302;4.634;2023-05-10T13:48:59;13.38;;;7.72;;
56653;SDS011;45096;52.302;4.634;2023-05-10T13:51:24;13.48;;;6.80;;
56653;SDS011;45096;52.302;4.634;2023-05-10T13:53:49;10.45;;;7.55;;
56653;SDS011;45096;52.302;4.634;2023-05-10T13:56:15;13.20;;;7.65;;
56653;SDS011;45096;52.302;4.634;2023-05-10T13:58:42;11.40;;;7.07;;
56653;SDS011;45096;52.302;4.634;2023-05-10T14:01:07;13.13;;;7.97;;
56653;SDS011;45096;52.302;4.634;2023-05-10T14:03:33;12.40;;;6.95;;
56653;SDS011;45096;52.302;4.634;2023-05-10T14:05:58;18.60;;;9.55;;
56653;SDS011;45096;52.302;4.634;2023-05-10T14:08:24;13.85;;;7.80;;
56653;SDS011;45096;52.302;4.634;2023-05-10T14:10:49;19.00;;;9.55;;
56653;SDS011;45096;52.302;4.634;2023-05-10T14:13:15;14.30;;;7.30;;
56653;SDS011;45096;52.302;4.634;2023-05-10T14:15:41;12.48;;;7.68;;
56653;SDS011;45096;52.302;4.634;2023-05-10T14:18:07;17.67;;;9.25;;
56653;SDS011;45096;52.302;4.634;2023-05-10T14:20:32;16.33;;;7.47;;
56653;SDS011;45096;52.302;4.634;2023-05-10T14:22:58;14.18;;;9.07;;
56653;SDS011;45096;52.302;4.634;2023-05-10T14:25:23;11.65;;;7.13;;
56653;SDS011;45096;52.302;4.634;2023-05-10T14:27:48;12.13;;;7.40;;
56653;SDS011;45096;52.302;4.634;2023-05-10T14:30:14;14.85;;;7.25;;
56653;SDS011;45096;52.302;4.634;2023-05-10T14:32:41;12.52;;;7.70;;
56653;SDS011;45096;52.302;4.634;2023-05-10T14:35:06;15.00;;;8.60;;
56653;SDS011;45096;52.302;4.634;2023-05-10T14:37:32;15.25;;;9.25;;
56653;SDS011;45096;52.302;4.634;2023-05-10T14:39:58;14.50;;;8.32;;